sensor_id;sensor_type;location;lat;lon;timestamp;pressure;altitude;pressure_sealevel;temperature;humidity
20696;BME280;10507;52.754;13.040;2023-02-14T00:01:58;102218.09;;;5.70;96.04
20696;BME280;10507;52.754;13.040;2023-02-14T00:04:50;102275.47;;;5.69;97.27
20696;BME280;10507;52.754;13.040;2023-02-14T00:07:42;102265.78;;;5.67;97.02
20696;BME280;10507;52.754;13.040;2023-02-14T00:10:34;102263.16;;;5.65;97.18
20696;BME280;10507;52.754;13.040;2023-02-14T00:13:26;102288.75;;;5.68;97.43
20696;BME280;10507;52.754;13.040;2023-02-14T00:16:19;102339.09;;;5.71;98.31
20696;BME280;10507;52.754;13.040;2023-02-14T00:19:11;102365.56;;;5.69;98.56
20696;BME280;10507;52.754;13.040;2023-02-14T00:22:04;102378.84;;;5.66;99.30
20696;BME280;10507;52.754;13.040;2023-02-14T00:24:56;102390.34;;;5.65;98.94
20696;BME280;10507;52.754;13.040;2023-02-14T00:27:48;102377.06;;;5.62;98.93
20696;BME280;10507;52.754;13.040;2023-02-14T00:30:40;102359.44;;;5.61;98.61
20696;BME280;10507;52.754;13.040;2023-02-14T00:33:33;102344.41;;;5.63;98.61
20696;BME280;10507;52.754;13.040;2023-02-14T00:36:25;102339.06;;;5.69;98.22
20696;BME280;10507;52.754;13.040;2023-02-14T00:39:18;102319.66;;;5.76;97.55
20696;BME280;10507;52.754;13.040;2023-02-14T00:42:10;102319.66;;;5.76;97.54
20696;BME280;10507;52.754;13.040;2023-02-14T00:45:03;102289.63;;;5.74;97.31
20696;BME280;10507;52.754;13.040;2023-02-14T00:47:56;102255.16;;;5.73;97.33
20696;BME280;10507;52.754;13.040;2023-02-14T00:50:49;102294.94;;;5.68;97.33
20696;BME280;10507;52.754;13.040;2023-02-14T00:53:42;102274.69;;;5.52;98.39
20696;BME280;10507;52.754;13.040;2023-02-14T00:56:37;102324.13;;;5.48;98.48
20696;BME280;10507;52.754;13.040;2023-02-14T00:59:29;102361.19;;;5.48;99.15
20696;BME280;10507;52.754;13.040;2023-02-14T01:02:21;102385.94;;;5.46;99.44
20696;BME280;10507;52.754;13.040;2023-02-14T01:05:13;102398.28;;;5.44;99.96
20696;BME280;10507;52.754;13.040;2023-02-14T01:08:06;102421.25;;;5.35;100.00
20696;BME280;10507;52.754;13.040;2023-02-14T01:11:06;102436.25;;;5.29;100.00
20696;BME280;10507;52.754;13.040;2023-02-14T01:13:59;102440.66;;;5.27;100.00
20696;BME280;10507;52.754;13.040;2023-02-14T01:16:52;102436.25;;;5.29;100.00
20696;BME280;10507;52.754;13.040;2023-02-14T01:19:44;102435.34;;;5.31;100.00
20696;BME280;10507;52.754;13.040;2023-02-14T01:22:36;102457.44;;;5.30;100.00
20696;BME280;10507;52.754;13.040;2023-02-14T01:25:29;102461.88;;;5.30;100.00
20696;BME280;10507;52.754;13.040;2023-02-14T01:28:24;102490.13;;;5.32;100.00
20696;BME280;10507;52.754;13.040;2023-02-14T01:31:18;102482.19;;;5.34;100.00
20696;BME280;10507;52.754;13.040;2023-02-14T01:34:10;102493.63;;;5.37;100.00
20696;BME280;10507;52.754;13.040;2023-02-14T01:37:01;102501.59;;;5.40;100.00
20696;BME280;10507;52.754;13.040;2023-02-14T01:39:53;102487.47;;;5.35;100.00
20696;BME280;10507;52.754;13.040;2023-02-14T01:42:47;102494.53;;;5.36;100.00
20696;BME280;10507;52.754;13.040;2023-02-14T01:45:39;102456.56;;;5.37;100.00
20696;BME280;10507;52.754;13.040;2023-02-14T01:48:32;102429.22;;;5.38;100.00
20696;BME280;10507;52.754;13.040;2023-02-14T01:51:24;102446.84;;;5.39;100.00
20696;BME280;10507;52.754;13.040;2023-02-14T01:54:17;102444.22;;;5.41;100.00
20696;BME280;10507;52.754;13.040;2023-02-14T01:57:12;102434.50;;;5.32;100.00
20696;BME280;10507;52.754;13.040;2023-02-14T02:00:09;102445.09;;;5.32;100.00
20696;BME280;10507;52.754;13.040;2023-02-14T02:03:19;102445.06;;;5.31;100.00
20696;BME280;10507;52.754;13.040;2023-02-14T02:06:14;102448.59;;;5.28;100.00
20696;BME280;10507;52.754;13.040;2023-02-14T02:09:12;102449.47;;;5.29;100.00
20696;BME280;10507;52.754;13.040;2023-02-14T02:12:06;102435.38;;;5.30;100.00
20696;BME280;10507;52.754;13.040;2023-02-14T02:14:59;102410.66;;;5.26;100.00
20696;BME280;10507;52.754;13.040;2023-02-14T02:18:02;102403.59;;;5.30;100.00
20696;BME280;10507;52.754;13.040;2023-02-14T02:21:18;102366.53;;;5.24;99.97
20696;BME280;10507;52.754;13.040;2023-02-14T02:24:21;102346.22;;;5.30;99.56
20696;BME280;10507;52.754;13.040;2023-02-14T02:27:28;102341.78;;;5.37;99.41
20696;BME280;10507;52.754;13.040;2023-02-14T02:30:38;102342.69;;;5.39;99.29
20696;BME280;10507;52.754;13.040;2023-02-14T02:34:00;102356.78;;;5.39;99.55
20696;BME280;10507;52.754;13.040;2023-02-14T02:37:10;102278.25;;;5.20;99.13
20696;BME280;10507;52.754;13.040;2023-02-14T02:40:21;102327.69;;;5.09;100.00
20696;BME280;10507;52.754;13.040;2023-02-14T02:43:29;102347.97;;;4.97;100.00
20696;BME280;10507;52.754;13.040;2023-02-14T02:46:30;102397.41;;;4.98;100.00
20696;BME280;10507;52.754;13.040;2023-02-14T02:49:44;102445.97;;;5.11;100.00
20696;BME280;10507;52.754;13.040;2023-02-14T02:53:04;102436.25;;;5.27;100.00
20696;BME280;10507;52.754;13.040;2023-02-14T02:56:00;102374.44;;;5.37;98.85
20696;BME280;10507;52.754;13.040;2023-02-14T02:59:16;102311.78;;;5.36;99.13
20696;BME280;10507;52.754;13.040;2023-02-14T03:02:13;102295.00;;;5.27;99.41
20696;BME280;10507;52.754;13.040;2023-02-14T03:05:07;102290.63;;;5.18;98.99
20696;BME280;10507;52.754;13.040;2023-02-14T03:08:00;102269.44;;;5.18;98.75
20696;BME280;10507;52.754;13.040;2023-02-14T03:10:53;102246.50;;;5.17;98.46
20696;BME280;10507;52.754;13.040;2023-02-14T03:13:55;102235.00;;;5.15;98.65
20696;BME280;10507;52.754;13.040;2023-02-14T03:16:58;102255.34;;;5.11;99.21
20696;BME280;10507;52.754;13.040;2023-02-14T03:19:55;102308.28;;;5.16;99.49
20696;BME280;10507;52.754;13.040;2023-02-14T03:23:13;102335.63;;;5.21;99.50
20696;BME280;10507;52.754;13.040;2023-02-14T03:26:13;102357.69;;;5.23;100.00
20696;BME280;10507;52.754;13.040;2023-02-14T03:29:12;102383.31;;;5.23;100.00
20696;BME280;10507;52.754;13.040;2023-02-14T03:32:12;102401.81;;;5.19;100.00
20696;BME280;10507;52.754;13.040;2023-02-14T03:35:11;102386.81;;;5.11;100.00
20696;BME280;10507;52.754;13.040;2023-02-14T03:38:10;102402.72;;;5.14;100.00
20696;BME280;10507;52.754;13.040;2023-02-14T03:41:09;102417.72;;;5.16;100.00
20696;BME280;10507;52.754;13.040;2023-02-14T03:44:05;102390.34;;;5.13;100.00
20696;BME280;10507;52.754;13.040;2023-02-14T03:47:02;102404.47;;;5.12;100.00
20696;BME280;10507;52.754;13.040;2023-02-14T03:49:59;102424.78;;;5.11;100.00
20696;BME280;10507;52.754;13.040;2023-02-14T03:52:52;102416.81;;;5.10;100.00
20696;BME280;10507;52.754;13.040;2023-02-14T03:55:52;102366.53;;;5.14;100.00
20696;BME280;10507;52.754;13.040;2023-02-14T03:58:49;102353.28;;;5.22;99.83
20696;BME280;10507;52.754;13.040;2023-02-14T04:01:45;102321.50;;;5.22;99.15
20696;BME280;10507;52.754;13.040;2023-02-14T04:04:42;102306.50;;;5.32;99.03
20696;BME280;10507;52.754;13.040;2023-02-14T04:07:44;102238.53;;;5.34;97.56
20696;BME280;10507;52.754;13.040;2023-02-14T04:10:36;102218.19;;;5.33;97.58
20696;BME280;10507;52.754;13.040;2023-02-14T04:13:30;102234.13;;;5.30;97.75
20696;BME280;10507;52.754;13.040;2023-02-14T04:16:23;102241.19;;;5.29;98.25
20696;BME280;10507;52.754;13.040;2023-02-14T04:19:15;102234.13;;;5.24;98.88
20696;BME280;10507;52.754;13.040;2023-02-14T04:22:15;102272.06;;;5.19;99.03
20696;BME280;10507;52.754;13.040;2023-02-14T04:25:08;102299.44;;;5.17;99.47
20696;BME280;10507;52.754;13.040;2023-02-14T04:28:00;102311.78;;;5.19;99.08
20696;BME280;10507;52.754;13.040;2023-02-14T04:30:53;102280.03;;;5.18;98.94
20696;BME280;10507;52.754;13.040;2023-02-14T04:33:45;102284.44;;;5.17;99.21
20696;BME280;10507;52.754;13.040;2023-02-14T04:36:38;102304.75;;;5.14;99.83
20696;BME280;10507;52.754;13.040;2023-02-14T04:39:30;102347.13;;;5.14;100.00
20696;BME280;10507;52.754;13.040;2023-02-14T04:42:23;102357.69;;;5.14;100.00
20696;BME280;10507;52.754;13.040;2023-02-14T04:45:39;102324.16;;;5.10;100.00
20696;BME280;10507;52.754;13.040;2023-02-14T04:48:56;102342.72;;;5.16;99.71
20696;BME280;10507;52.754;13.040;2023-02-14T04:52:14;102312.69;;;5.17;99.47
20696;BME280;10507;52.754;13.040;2023-02-14T04:55:30;102264.16;;;5.12;99.24
20696;BME280;10507;52.754;13.040;2023-02-14T04:58:46;102312.69;;;5.02;100.00
20696;BME280;10507;52.754;13.040;2023-02-14T05:02:02;102356.78;;;4.99;100.00
20696;BME280;10507;52.754;13.040;2023-02-14T05:05:19;102352.41;;;4.98;100.00
20696;BME280;10507;52.754;13.040;2023-02-14T05:08:36;102333.84;;;4.95;100.00
20696;BME280;10507;52.754;13.040;2023-02-14T05:11:52;102325.94;;;4.89;100.00
20696;BME280;10507;52.754;13.040;2023-02-14T05:15:09;102340.03;;;4.93;100.00
20696;BME280;10507;52.754;13.040;2023-02-14T05:18:25;102382.38;;;4.97;100.00
20696;BME280;10507;52.754;13.040;2023-02-14T05:21:42;102374.44;;;4.94;100.00
20696;BME280;10507;52.754;13.040;2023-02-14T05:24:58;102394.75;;;4.97;100.00
20696;BME280;10507;52.754;13.040;2023-02-14T05:28:14;102374.47;;;4.91;100.00
20696;BME280;10507;52.754;13.040;2023-02-14T05:31:30;102371.78;;;4.88;100.00
20696;BME280;10507;52.754;13.040;2023-02-14T05:34:46;102397.38;;;4.89;100.00
20696;BME280;10507;52.754;13.040;2023-02-14T05:38:03;102389.41;;;4.86;100.00
20696;BME280;10507;52.754;13.040;2023-02-14T05:41:19;102400.00;;;4.83;100.00
20696;BME280;10507;52.754;13.040;2023-02-14T05:44:35;102387.66;;;4.81;100.00
20696;BME280;10507;52.754;13.040;2023-02-14T05:47:51;102412.38;;;4.89;100.00
20696;BME280;10507;52.754;13.040;2023-02-14T05:51:09;102413.25;;;4.95;100.00
20696;BME280;10507;52.754;13.040;2023-02-14T05:54:26;102428.25;;;4.92;100.00
20696;BME280;10507;52.754;13.040;2023-02-14T05:57:42;102370.03;;;4.86;100.00
20696;BME280;10507;52.754;13.040;2023-02-14T06:00:58;102318.00;;;4.98;99.56
20696;BME280;10507;52.754;13.040;2023-02-14T06:04:15;102318.00;;;5.05;100.00
20696;BME280;10507;52.754;13.040;2023-02-14T06:07:33;102354.16;;;5.09;100.00
20696;BME280;10507;52.754;13.040;2023-02-14T06:10:52;102344.44;;;5.12;100.00
20696;BME280;10507;52.754;13.040;2023-02-14T06:14:08;102302.97;;;5.08;99.80
20696;BME280;10507;52.754;13.040;2023-02-14T06:17:24;102286.22;;;5.05;99.95
20696;BME280;10507;52.754;13.040;2023-02-14T06:20:40;102297.69;;;4.99;99.95
20696;BME280;10507;52.754;13.040;2023-02-14T06:23:56;102339.16;;;4.89;100.00
20696;BME280;10507;52.754;13.040;2023-02-14T06:27:13;102323.28;;;4.78;100.00
20696;BME280;10507;52.754;13.040;2023-02-14T06:30:29;102337.34;;;4.73;100.00
20696;BME280;10507;52.754;13.040;2023-02-14T06:33:45;102415.00;;;4.84;100.00
20696;BME280;10507;52.754;13.040;2023-02-14T06:37:01;102396.50;;;4.93;100.00
20696;BME280;10507;52.754;13.040;2023-02-14T06:40:17;102361.22;;;4.96;100.00
20696;BME280;10507;52.754;13.040;2023-02-14T06:43:35;102383.25;;;4.99;100.00
20696;BME280;10507;52.754;13.040;2023-02-14T06:46:51;102335.63;;;4.92;100.00
20696;BME280;10507;52.754;13.040;2023-02-14T06:50:08;102346.22;;;4.89;100.00
20696;BME280;10507;52.754;13.040;2023-02-14T06:53:24;102377.97;;;4.96;100.00
20696;BME280;10507;52.754;13.040;2023-02-14T06:56:40;102374.47;;;4.96;100.00
20696;BME280;10507;52.754;13.040;2023-02-14T06:59:57;102397.41;;;5.00;100.00
20696;BME280;10507;52.754;13.040;2023-02-14T07:03:13;102400.06;;;5.05;100.00
20696;BME280;10507;52.754;13.040;2023-02-14T07:06:30;102386.81;;;5.12;100.00
20696;BME280;10507;52.754;13.040;2023-02-14T07:09:46;102332.09;;;5.10;99.64
20696;BME280;10507;52.754;13.040;2023-02-14T07:13:02;102359.47;;;5.10;100.00
20696;BME280;10507;52.754;13.040;2023-02-14T07:16:19;102358.56;;;5.17;100.00
20696;BME280;10507;52.754;13.040;2023-02-14T07:19:36;102356.81;;;5.18;100.00
20696;BME280;10507;52.754;13.040;2023-02-14T07:22:52;102381.50;;;5.20;100.00
20696;BME280;10507;52.754;13.040;2023-02-14T07:26:08;102396.53;;;5.07;100.00
20696;BME280;10507;52.754;13.040;2023-02-14T07:29:25;102457.41;;;5.10;100.00
20696;BME280;10507;52.754;13.040;2023-02-14T07:32:42;102498.03;;;5.17;100.00
20696;BME280;10507;52.754;13.040;2023-02-14T07:36:03;102462.72;;;5.21;100.00
20696;BME280;10507;52.754;13.040;2023-02-14T07:39:19;102482.16;;;5.35;100.00
20696;BME280;10507;52.754;13.040;2023-02-14T07:42:35;102448.63;;;5.40;100.00
20696;BME280;10507;52.754;13.040;2023-02-14T07:45:51;102415.06;;;5.50;100.00
20696;BME280;10507;52.754;13.040;2023-02-14T07:49:08;102388.59;;;5.52;99.68
20696;BME280;10507;52.754;13.040;2023-02-14T07:52:24;102330.31;;;5.47;99.54
20696;BME280;10507;52.754;13.040;2023-02-14T07:55:40;102360.31;;;5.58;99.65
